sensor_id;sensor_type;location;lat;lon;timestamp;P1;durP1;ratioP1;P2;durP2;ratioP2
70148;SDS011;57514;52.164;5.282;2023-05-07T00:01:15;23.95;;;13.80;;
70148;SDS011;57514;52.164;5.282;2023-05-07T00:03:44;23.98;;;14.60;;
70148;SDS011;57514;52.164;5.282;2023-05-07T00:06:12;23.88;;;16.48;;
70148;SDS011;57514;52.164;5.282;2023-05-07T00:08:39;24.67;;;14.80;;
70148;SDS011;57514;52.164;5.282;2023-05-07T00:11:06;22.98;;;15.23;;
70148;SDS011;57514;52.164;5.282;2023-05-07T00:13:33;21.60;;;13.85;;
70148;SDS011;57514;52.164;5.282;2023-05-07T00:16:02;18.88;;;12.27;;
70148;SDS011;57514;52.164;5.282;2023-05-07T00:18:29;20.17;;;13.13;;
70148;SDS011;57514;52.164;5.282;2023-05-07T00:20:56;23.42;;;14.27;;
70148;SDS011;57514;52.164;5.282;2023-05-07T00:23:23;23.30;;;14.10;;
70148;SDS011;57514;52.164;5.282;2023-05-07T00:25:51;20.83;;;13.60;;
70148;SDS011;57514;52.164;5.282;2023-05-07T00:28:18;21.30;;;12.77;;
70148;SDS011;57514;52.164;5.282;2023-05-07T00:30:45;22.80;;;13.23;;
70148;SDS011;57514;52.164;5.282;2023-05-07T00:33:13;21.08;;;12.80;;
70148;SDS011;57514;52.164;5.282;2023-05-07T00:35:40;20.77;;;12.98;;
70148;SDS011;57514;52.164;5.282;2023-05-07T00:38:07;19.58;;;12.20;;
70148;SDS011;57514;52.164;5.282;2023-05-07T00:40:34;19.77;;;12.23;;
70148;SDS011;57514;52.164;5.282;2023-05-07T00:43:01;17.60;;;11.18;;
70148;SDS011;57514;52.164;5.282;2023-05-07T00:45:29;19.88;;;11.18;;
70148;SDS011;57514;52.164;5.282;2023-05-07T00:47:57;19.60;;;11.45;;
70148;SDS011;57514;52.164;5.282;2023-05-07T00:50:26;19.30;;;11.93;;
70148;SDS011;57514;52.164;5.282;2023-05-07T00:52:53;18.77;;;11.48;;
70148;SDS011;57514;52.164;5.282;2023-05-07T00:55:21;18.38;;;11.82;;
70148;SDS011;57514;52.164;5.282;2023-05-07T00:57:49;17.70;;;10.95;;
70148;SDS011;57514;52.164;5.282;2023-05-07T01:00:17;19.42;;;12.10;;
70148;SDS011;57514;52.164;5.282;2023-05-07T01:02:44;18.73;;;10.90;;
70148;SDS011;57514;52.164;5.282;2023-05-07T01:05:14;20.15;;;11.68;;
70148;SDS011;57514;52.164;5.282;2023-05-07T01:07:43;18.83;;;12.13;;
70148;SDS011;57514;52.164;5.282;2023-05-07T01:10:11;20.13;;;12.63;;
70148;SDS011;57514;52.164;5.282;2023-05-07T01:12:39;18.50;;;13.45;;
70148;SDS011;57514;52.164;5.282;2023-05-07T01:15:07;17.23;;;11.25;;
70148;SDS011;57514;52.164;5.282;2023-05-07T01:17:39;18.05;;;11.32;;
70148;SDS011;57514;52.164;5.282;2023-05-07T01:20:12;18.05;;;11.02;;
70148;SDS011;57514;52.164;5.282;2023-05-07T01:22:41;18.80;;;11.90;;
70148;SDS011;57514;52.164;5.282;2023-05-07T01:25:09;15.95;;;10.32;;
70148;SDS011;57514;52.164;5.282;2023-05-07T01:27:41;20.10;;;12.05;;
70148;SDS011;57514;52.164;5.282;2023-05-07T01:30:08;17.88;;;11.57;;
70148;SDS011;57514;52.164;5.282;2023-05-07T01:35:12;19.08;;;11.88;;
70148;SDS011;57514;52.164;5.282;2023-05-07T01:37:43;17.42;;;10.93;;
70148;SDS011;57514;52.164;5.282;2023-05-07T01:40:10;19.65;;;11.85;;
70148;SDS011;57514;52.164;5.282;2023-05-07T01:42:38;20.70;;;11.77;;
70148;SDS011;57514;52.164;5.282;2023-05-07T01:45:06;20.15;;;11.55;;
70148;SDS011;57514;52.164;5.282;2023-05-07T01:47:33;17.67;;;11.90;;
70148;SDS011;57514;52.164;5.282;2023-05-07T01:50:00;18.77;;;12.07;;
70148;SDS011;57514;52.164;5.282;2023-05-07T01:52:27;17.73;;;11.20;;
70148;SDS011;57514;52.164;5.282;2023-05-07T01:54:56;18.92;;;11.70;;
70148;SDS011;57514;52.164;5.282;2023-05-07T01:57:22;19.42;;;11.90;;
70148;SDS011;57514;52.164;5.282;2023-05-07T01:59:50;21.65;;;12.25;;
70148;SDS011;57514;52.164;5.282;2023-05-07T02:02:17;18.48;;;12.35;;
70148;SDS011;57514;52.164;5.282;2023-05-07T02:04:45;21.85;;;12.05;;
70148;SDS011;57514;52.164;5.282;2023-05-07T02:07:13;20.55;;;12.40;;
70148;SDS011;57514;52.164;5.282;2023-05-07T02:09:41;19.05;;;11.18;;
70148;SDS011;57514;52.164;5.282;2023-05-07T02:12:08;20.00;;;11.90;;
70148;SDS011;57514;52.164;5.282;2023-05-07T02:14:35;22.35;;;12.23;;
70148;SDS011;57514;52.164;5.282;2023-05-07T02:17:02;18.48;;;11.30;;
70148;SDS011;57514;52.164;5.282;2023-05-07T02:19:29;19.25;;;11.98;;
70148;SDS011;57514;52.164;5.282;2023-05-07T02:21:56;18.70;;;11.43;;
70148;SDS011;57514;52.164;5.282;2023-05-07T02:24:28;19.48;;;12.07;;
70148;SDS011;57514;52.164;5.282;2023-05-07T02:26:56;19.33;;;11.52;;
70148;SDS011;57514;52.164;5.282;2023-05-07T02:29:23;20.98;;;12.40;;
70148;SDS011;57514;52.164;5.282;2023-05-07T02:31:52;20.02;;;12.00;;
70148;SDS011;57514;52.164;5.282;2023-05-07T02:34:19;17.15;;;11.30;;
70148;SDS011;57514;52.164;5.282;2023-05-07T02:36:47;19.45;;;12.77;;
70148;SDS011;57514;52.164;5.282;2023-05-07T02:39:18;19.27;;;12.68;;
70148;SDS011;57514;52.164;5.282;2023-05-07T02:41:45;20.33;;;11.55;;
70148;SDS011;57514;52.164;5.282;2023-05-07T02:44:12;18.05;;;11.38;;
70148;SDS011;57514;52.164;5.282;2023-05-07T02:46:39;18.85;;;12.15;;
70148;SDS011;57514;52.164;5.282;2023-05-07T02:49:09;20.02;;;11.77;;
70148;SDS011;57514;52.164;5.282;2023-05-07T02:51:38;20.88;;;12.23;;
70148;SDS011;57514;52.164;5.282;2023-05-07T02:54:10;21.63;;;12.60;;
70148;SDS011;57514;52.164;5.282;2023-05-07T02:56:38;18.90;;;11.57;;
70148;SDS011;57514;52.164;5.282;2023-05-07T02:59:05;19.92;;;12.45;;
70148;SDS011;57514;52.164;5.282;2023-05-07T03:01:36;21.13;;;13.10;;
70148;SDS011;57514;52.164;5.282;2023-05-07T03:04:06;19.20;;;12.52;;
70148;SDS011;57514;52.164;5.282;2023-05-07T03:06:33;19.92;;;13.13;;
70148;SDS011;57514;52.164;5.282;2023-05-07T03:09:00;22.13;;;12.60;;
70148;SDS011;57514;52.164;5.282;2023-05-07T03:11:28;20.30;;;12.23;;
70148;SDS011;57514;52.164;5.282;2023-05-07T03:13:55;21.60;;;13.48;;
70148;SDS011;57514;52.164;5.282;2023-05-07T03:16:23;21.10;;;12.80;;
70148;SDS011;57514;52.164;5.282;2023-05-07T03:18:50;21.10;;;13.27;;
70148;SDS011;57514;52.164;5.282;2023-05-07T03:21:17;19.83;;;12.35;;
70148;SDS011;57514;52.164;5.282;2023-05-07T03:23:44;21.40;;;12.88;;
70148;SDS011;57514;52.164;5.282;2023-05-07T03:26:12;21.08;;;12.63;;
70148;SDS011;57514;52.164;5.282;2023-05-07T03:28:39;22.08;;;13.32;;
70148;SDS011;57514;52.164;5.282;2023-05-07T03:31:10;21.45;;;13.07;;
70148;SDS011;57514;52.164;5.282;2023-05-07T03:33:47;20.60;;;13.32;;
70148;SDS011;57514;52.164;5.282;2023-05-07T03:36:19;22.10;;;13.35;;
70148;SDS011;57514;52.164;5.282;2023-05-07T03:38:46;19.27;;;12.38;;
70148;SDS011;57514;52.164;5.282;2023-05-07T03:41:17;22.60;;;13.35;;
70148;SDS011;57514;52.164;5.282;2023-05-07T03:43:46;24.05;;;13.98;;
70148;SDS011;57514;52.164;5.282;2023-05-07T03:46:13;21.75;;;14.05;;
70148;SDS011;57514;52.164;5.282;2023-05-07T03:48:41;20.02;;;12.45;;
70148;SDS011;57514;52.164;5.282;2023-05-07T03:51:11;23.25;;;12.80;;
70148;SDS011;57514;52.164;5.282;2023-05-07T03:53:38;20.33;;;12.88;;
70148;SDS011;57514;52.164;5.282;2023-05-07T03:56:05;20.60;;;13.82;;
70148;SDS011;57514;52.164;5.282;2023-05-07T03:58:36;20.25;;;12.90;;
70148;SDS011;57514;52.164;5.282;2023-05-07T04:01:06;23.90;;;12.88;;
70148;SDS011;57514;52.164;5.282;2023-05-07T04:03:34;21.13;;;13.27;;
70148;SDS011;57514;52.164;5.282;2023-05-07T04:06:02;24.92;;;13.75;;
70148;SDS011;57514;52.164;5.282;2023-05-07T04:08:31;21.73;;;13.23;;
70148;SDS011;57514;52.164;5.282;2023-05-07T04:10:58;24.38;;;14.65;;
70148;SDS011;57514;52.164;5.282;2023-05-07T04:13:30;21.73;;;13.70;;
70148;SDS011;57514;52.164;5.282;2023-05-07T04:16:00;19.85;;;13.55;;
70148;SDS011;57514;52.164;5.282;2023-05-07T04:18:28;21.90;;;13.43;;
70148;SDS011;57514;52.164;5.282;2023-05-07T04:20:55;21.77;;;13.50;;
70148;SDS011;57514;52.164;5.282;2023-05-07T04:23:23;21.52;;;14.13;;
70148;SDS011;57514;52.164;5.282;2023-05-07T04:25:51;24.10;;;13.93;;
70148;SDS011;57514;52.164;5.282;2023-05-07T04:28:32;22.42;;;13.85;;
70148;SDS011;57514;52.164;5.282;2023-05-07T04:30:59;23.83;;;13.45;;
70148;SDS011;57514;52.164;5.282;2023-05-07T04:33:28;23.30;;;13.50;;
70148;SDS011;57514;52.164;5.282;2023-05-07T04:35:56;21.98;;;13.77;;
70148;SDS011;57514;52.164;5.282;2023-05-07T04:38:29;19.42;;;13.00;;
70148;SDS011;57514;52.164;5.282;2023-05-07T04:41:03;23.23;;;13.70;;
70148;SDS011;57514;52.164;5.282;2023-05-07T04:43:32;20.48;;;13.38;;
70148;SDS011;57514;52.164;5.282;2023-05-07T04:45:59;21.25;;;13.00;;
70148;SDS011;57514;52.164;5.282;2023-05-07T04:48:27;23.67;;;13.70;;
70148;SDS011;57514;52.164;5.282;2023-05-07T04:50:55;21.92;;;15.50;;
70148;SDS011;57514;52.164;5.282;2023-05-07T04:53:23;23.35;;;12.95;;
70148;SDS011;57514;52.164;5.282;2023-05-07T04:55:58;23.17;;;13.55;;
70148;SDS011;57514;52.164;5.282;2023-05-07T04:58:31;20.15;;;13.18;;
70148;SDS011;57514;52.164;5.282;2023-05-07T05:01:01;20.42;;;13.55;;
70148;SDS011;57514;52.164;5.282;2023-05-07T05:03:28;20.45;;;13.63;;
70148;SDS011;57514;52.164;5.282;2023-05-07T05:05:56;23.05;;;13.93;;
70148;SDS011;57514;52.164;5.282;2023-05-07T05:08:29;21.23;;;12.98;;
70148;SDS011;57514;52.164;5.282;2023-05-07T05:10:58;22.48;;;14.70;;
70148;SDS011;57514;52.164;5.282;2023-05-07T05:13:25;23.42;;;13.45;;
70148;SDS011;57514;52.164;5.282;2023-05-07T05:15:52;21.67;;;12.82;;
70148;SDS011;57514;52.164;5.282;2023-05-07T05:18:20;20.13;;;13.13;;
70148;SDS011;57514;52.164;5.282;2023-05-07T05:20:51;21.27;;;13.25;;
70148;SDS011;57514;52.164;5.282;2023-05-07T05:23:18;20.40;;;12.98;;
70148;SDS011;57514;52.164;5.282;2023-05-07T05:25:48;20.45;;;12.00;;
70148;SDS011;57514;52.164;5.282;2023-05-07T05:28:17;20.95;;;12.98;;
70148;SDS011;57514;52.164;5.282;2023-05-07T05:30:45;21.00;;;12.80;;
70148;SDS011;57514;52.164;5.282;2023-05-07T05:33:13;20.55;;;12.95;;
70148;SDS011;57514;52.164;5.282;2023-05-07T05:35:40;21.58;;;12.88;;
70148;SDS011;57514;52.164;5.282;2023-05-07T05:40:38;20.50;;;12.05;;
70148;SDS011;57514;52.164;5.282;2023-05-07T05:43:05;21.40;;;11.75;;
70148;SDS011;57514;52.164;5.282;2023-05-07T05:45:36;19.65;;;12.88;;
70148;SDS011;57514;52.164;5.282;2023-05-07T05:48:04;21.05;;;12.65;;
70148;SDS011;57514;52.164;5.282;2023-05-07T05:50:32;22.20;;;13.70;;
70148;SDS011;57514;52.164;5.282;2023-05-07T05:52:59;20.48;;;13.80;;
70148;SDS011;57514;52.164;5.282;2023-05-07T05:55:27;20.48;;;12.93;;
70148;SDS011;57514;52.164;5.282;2023-05-07T05:57:55;20.55;;;12.63;;
70148;SDS011;57514;52.164;5.282;2023-05-07T06:00:23;19.63;;;12.40;;
70148;SDS011;57514;52.164;5.282;2023-05-07T06:02:58;21.95;;;13.50;;
70148;SDS011;57514;52.164;5.282;2023-05-07T06:05:26;21.85;;;13.35;;
70148;SDS011;57514;52.164;5.282;2023-05-07T06:07:55;21.23;;;12.07;;
70148;SDS011;57514;52.164;5.282;2023-05-07T06:10:23;23.05;;;13.23;;
70148;SDS011;57514;52.164;5.282;2023-05-07T06:12:50;22.30;;;13.68;;
70148;SDS011;57514;52.164;5.282;2023-05-07T06:15:18;21.77;;;13.77;;
70148;SDS011;57514;52.164;5.282;2023-05-07T06:17:45;23.25;;;13.57;;
70148;SDS011;57514;52.164;5.282;2023-05-07T06:20:12;23.75;;;14.27;;
70148;SDS011;57514;52.164;5.282;2023-05-07T06:22:39;23.80;;;13.35;;
70148;SDS011;57514;52.164;5.282;2023-05-07T06:25:08;21.70;;;13.13;;
70148;SDS011;57514;52.164;5.282;2023-05-07T06:27:36;24.00;;;13.65;;
70148;SDS011;57514;52.164;5.282;2023-05-07T06:30:06;25.00;;;14.52;;
70148;SDS011;57514;52.164;5.282;2023-05-07T06:32:33;26.77;;;15.68;;
70148;SDS011;57514;52.164;5.282;2023-05-07T06:35:01;27.65;;;13.98;;
70148;SDS011;57514;52.164;5.282;2023-05-07T06:37:28;25.90;;;16.90;;
70148;SDS011;57514;52.164;5.282;2023-05-07T06:39:59;27.08;;;16.10;;
70148;SDS011;57514;52.164;5.282;2023-05-07T06:42:29;27.95;;;15.35;;
70148;SDS011;57514;52.164;5.282;2023-05-07T06:47:28;27.25;;;15.07;;
70148;SDS011;57514;52.164;5.282;2023-05-07T06:49:56;25.92;;;15.65;;
70148;SDS011;57514;52.164;5.282;2023-05-07T06:52:26;26.98;;;16.13;;
70148;SDS011;57514;52.164;5.282;2023-05-07T06:54:54;27.08;;;15.80;;
70148;SDS011;57514;52.164;5.282;2023-05-07T06:57:24;25.52;;;15.00;;
70148;SDS011;57514;52.164;5.282;2023-05-07T06:59:51;24.58;;;15.27;;
70148;SDS011;57514;52.164;5.282;2023-05-07T07:02:19;25.10;;;14.48;;
70148;SDS011;57514;52.164;5.282;2023-05-07T07:04:48;23.63;;;15.23;;
70148;SDS011;57514;52.164;5.282;2023-05-07T07:07:15;24.92;;;14.98;;
70148;SDS011;57514;52.164;5.282;2023-05-07T07:09:45;24.48;;;16.35;;
70148;SDS011;57514;52.164;5.282;2023-05-07T07:12:15;24.58;;;15.20;;
70148;SDS011;57514;52.164;5.282;2023-05-07T07:14:42;26.27;;;15.93;;
70148;SDS011;57514;52.164;5.282;2023-05-07T07:17:13;25.10;;;14.95;;
70148;SDS011;57514;52.164;5.282;2023-05-07T07:19:40;25.10;;;14.60;;
70148;SDS011;57514;52.164;5.282;2023-05-07T07:22:11;24.17;;;15.20;;
70148;SDS011;57514;52.164;5.282;2023-05-07T07:24:38;24.13;;;16.58;;
70148;SDS011;57514;52.164;5.282;2023-05-07T07:27:08;24.27;;;14.48;;
70148;SDS011;57514;52.164;5.282;2023-05-07T07:29:35;22.90;;;14.80;;
70148;SDS011;57514;52.164;5.282;2023-05-07T07:32:02;23.58;;;15.35;;
70148;SDS011;57514;52.164;5.282;2023-05-07T07:34:31;21.50;;;14.07;;
70148;SDS011;57514;52.164;5.282;2023-05-07T07:37:00;24.05;;;14.45;;
70148;SDS011;57514;52.164;5.282;2023-05-07T07:39:32;20.17;;;14.18;;
70148;SDS011;57514;52.164;5.282;2023-05-07T07:42:00;23.60;;;13.63;;
70148;SDS011;57514;52.164;5.282;2023-05-07T07:44:29;21.60;;;13.05;;
70148;SDS011;57514;52.164;5.282;2023-05-07T07:47:00;20.13;;;12.80;;
70148;SDS011;57514;52.164;5.282;2023-05-07T07:49:28;20.75;;;12.82;;
70148;SDS011;57514;52.164;5.282;2023-05-07T07:51:58;19.33;;;12.95;;
70148;SDS011;57514;52.164;5.282;2023-05-07T07:54:27;17.40;;;12.02;;
70148;SDS011;57514;52.164;5.282;2023-05-07T07:56:55;19.75;;;12.27;;
70148;SDS011;57514;52.164;5.282;2023-05-07T07:59:23;21.48;;;12.57;;
70148;SDS011;57514;52.164;5.282;2023-05-07T08:01:50;19.40;;;12.88;;
70148;SDS011;57514;52.164;5.282;2023-05-07T08:04:21;19.70;;;13.55;;
70148;SDS011;57514;52.164;5.282;2023-05-07T08:06:49;19.83;;;12.60;;
70148;SDS011;57514;52.164;5.282;2023-05-07T08:09:16;19.65;;;13.20;;
70148;SDS011;57514;52.164;5.282;2023-05-07T08:11:45;20.90;;;13.40;;
70148;SDS011;57514;52.164;5.282;2023-05-07T08:14:12;22.10;;;13.98;;
70148;SDS011;57514;52.164;5.282;2023-05-07T08:16:44;19.83;;;12.88;;
70148;SDS011;57514;52.164;5.282;2023-05-07T08:19:12;20.50;;;13.82;;
70148;SDS011;57514;52.164;5.282;2023-05-07T08:21:39;19.73;;;13.07;;
70148;SDS011;57514;52.164;5.282;2023-05-07T08:26:36;23.50;;;14.80;;
70148;SDS011;57514;52.164;5.282;2023-05-07T08:29:08;22.63;;;14.13;;
70148;SDS011;57514;52.164;5.282;2023-05-07T08:31:35;20.45;;;13.30;;
70148;SDS011;57514;52.164;5.282;2023-05-07T08:34:03;22.50;;;13.95;;
70148;SDS011;57514;52.164;5.282;2023-05-07T08:36:35;21.88;;;13.75;;
70148;SDS011;57514;52.164;5.282;2023-05-07T08:39:03;21.45;;;13.55;;
70148;SDS011;57514;52.164;5.282;2023-05-07T08:41:30;20.70;;;14.02;;
70148;SDS011;57514;52.164;5.282;2023-05-07T08:43:57;23.05;;;13.70;;
70148;SDS011;57514;52.164;5.282;2023-05-07T08:46:26;24.38;;;14.50;;
70148;SDS011;57514;52.164;5.282;2023-05-07T08:48:58;22.95;;;14.18;;
70148;SDS011;57514;52.164;5.282;2023-05-07T08:51:25;24.38;;;15.68;;
70148;SDS011;57514;52.164;5.282;2023-05-07T08:53:53;21.85;;;14.30;;
70148;SDS011;57514;52.164;5.282;2023-05-07T08:56:25;21.73;;;14.30;;
70148;SDS011;57514;52.164;5.282;2023-05-07T08:58:53;24.23;;;14.70;;
70148;SDS011;57514;52.164;5.282;2023-05-07T09:01:26;21.58;;;14.18;;
70148;SDS011;57514;52.164;5.282;2023-05-07T09:03:55;22.73;;;14.15;;
70148;SDS011;57514;52.164;5.282;2023-05-07T09:06:22;20.33;;;14.50;;
70148;SDS011;57514;52.164;5.282;2023-05-07T09:08:50;24.65;;;14.65;;
70148;SDS011;57514;52.164;5.282;2023-05-07T09:11:20;23.10;;;14.88;;
70148;SDS011;57514;52.164;5.282;2023-05-07T09:13:49;18.02;;;12.45;;
70148;SDS011;57514;52.164;5.282;2023-05-07T09:16:25;19.83;;;13.90;;
70148;SDS011;57514;52.164;5.282;2023-05-07T09:18:53;21.08;;;14.05;;
70148;SDS011;57514;52.164;5.282;2023-05-07T09:21:22;19.25;;;13.35;;
70148;SDS011;57514;52.164;5.282;2023-05-07T09:23:55;20.40;;;13.30;;
70148;SDS011;57514;52.164;5.282;2023-05-07T09:26:29;20.88;;;14.85;;
70148;SDS011;57514;52.164;5.282;2023-05-07T09:28:59;19.63;;;12.93;;
70148;SDS011;57514;52.164;5.282;2023-05-07T09:31:26;19.38;;;13.70;;
70148;SDS011;57514;52.164;5.282;2023-05-07T09:33:55;18.85;;;12.77;;
70148;SDS011;57514;52.164;5.282;2023-05-07T09:36:25;19.88;;;12.95;;
70148;SDS011;57514;52.164;5.282;2023-05-07T09:38:53;18.02;;;12.18;;
70148;SDS011;57514;52.164;5.282;2023-05-07T09:41:21;20.15;;;14.10;;
70148;SDS011;57514;52.164;5.282;2023-05-07T09:44:09;21.85;;;14.48;;
70148;SDS011;57514;52.164;5.282;2023-05-07T09:46:42;18.50;;;12.80;;
70148;SDS011;57514;52.164;5.282;2023-05-07T09:49:23;19.17;;;13.43;;
70148;SDS011;57514;52.164;5.282;2023-05-07T09:51:58;19.60;;;13.63;;
70148;SDS011;57514;52.164;5.282;2023-05-07T09:54:29;17.50;;;12.68;;
70148;SDS011;57514;52.164;5.282;2023-05-07T09:56:58;19.83;;;14.48;;
70148;SDS011;57514;52.164;5.282;2023-05-07T09:59:29;18.75;;;13.77;;
70148;SDS011;57514;52.164;5.282;2023-05-07T10:02:01;22.17;;;12.40;;
70148;SDS011;57514;52.164;5.282;2023-05-07T10:04:35;19.20;;;12.35;;
70148;SDS011;57514;52.164;5.282;2023-05-07T10:07:03;17.77;;;12.98;;
70148;SDS011;57514;52.164;5.282;2023-05-07T10:09:33;17.63;;;11.52;;
70148;SDS011;57514;52.164;5.282;2023-05-07T10:12:06;18.40;;;12.95;;
70148;SDS011;57514;52.164;5.282;2023-05-07T10:14:34;14.30;;;9.75;;
70148;SDS011;57514;52.164;5.282;2023-05-07T10:17:02;15.52;;;9.77;;
70148;SDS011;57514;52.164;5.282;2023-05-07T10:19:29;15.43;;;10.45;;
70148;SDS011;57514;52.164;5.282;2023-05-07T10:22:00;13.82;;;8.85;;
70148;SDS011;57514;52.164;5.282;2023-05-07T10:24:33;14.48;;;8.80;;
70148;SDS011;57514;52.164;5.282;2023-05-07T10:27:10;12.48;;;7.72;;
70148;SDS011;57514;52.164;5.282;2023-05-07T10:35:27;13.38;;;7.38;;
70148;SDS011;57514;52.164;5.282;2023-05-07T10:38:00;14.50;;;7.57;;
70148;SDS011;57514;52.164;5.282;2023-05-07T10:42:57;14.80;;;8.25;;
70148;SDS011;57514;52.164;5.282;2023-05-07T10:45:34;15.00;;;9.05;;
70148;SDS011;57514;52.164;5.282;2023-05-07T10:51:17;14.05;;;7.68;;
70148;SDS011;57514;52.164;5.282;2023-05-07T10:54:18;13.15;;;7.18;;
70148;SDS011;57514;52.164;5.282;2023-05-07T10:56:43;12.95;;;7.63;;
70148;SDS011;57514;52.164;5.282;2023-05-07T11:02:02;14.23;;;7.40;;
70148;SDS011;57514;52.164;5.282;2023-05-07T11:04:39;13.70;;;7.85;;
70148;SDS011;57514;52.164;5.282;2023-05-07T11:09:59;12.48;;;7.25;;
70148;SDS011;57514;52.164;5.282;2023-05-07T11:12:51;13.10;;;7.07;;
70148;SDS011;57514;52.164;5.282;2023-05-07T11:15:33;12.65;;;7.28;;
70148;SDS011;57514;52.164;5.282;2023-05-07T11:18:45;11.48;;;6.18;;
70148;SDS011;57514;52.164;5.282;2023-05-07T11:24:07;10.27;;;6.10;;
70148;SDS011;57514;52.164;5.282;2023-05-07T11:26:44;12.00;;;7.30;;
70148;SDS011;57514;52.164;5.282;2023-05-07T11:31:53;11.45;;;7.35;;
70148;SDS011;57514;52.164;5.282;2023-05-07T11:34:26;13.32;;;8.00;;
70148;SDS011;57514;52.164;5.282;2023-05-07T11:36:55;13.43;;;7.97;;
70148;SDS011;57514;52.164;5.282;2023-05-07T11:39:34;14.88;;;8.48;;
70148;SDS011;57514;52.164;5.282;2023-05-07T11:42:02;15.68;;;8.10;;
70148;SDS011;57514;52.164;5.282;2023-05-07T11:44:42;13.32;;;7.93;;
70148;SDS011;57514;52.164;5.282;2023-05-07T11:47:18;12.73;;;8.27;;
70148;SDS011;57514;52.164;5.282;2023-05-07T11:49:50;12.68;;;7.88;;
70148;SDS011;57514;52.164;5.282;2023-05-07T11:52:19;12.98;;;7.70;;
70148;SDS011;57514;52.164;5.282;2023-05-07T11:57:21;13.98;;;8.15;;
70148;SDS011;57514;52.164;5.282;2023-05-07T11:59:53;12.90;;;8.38;;
70148;SDS011;57514;52.164;5.282;2023-05-07T12:02:20;11.43;;;6.72;;
70148;SDS011;57514;52.164;5.282;2023-05-07T12:04:48;12.93;;;7.88;;
70148;SDS011;57514;52.164;5.282;2023-05-07T12:07:15;12.65;;;8.00;;
70148;SDS011;57514;52.164;5.282;2023-05-07T12:09:43;13.05;;;8.07;;
70148;SDS011;57514;52.164;5.282;2023-05-07T12:12:10;13.60;;;8.25;;
70148;SDS011;57514;52.164;5.282;2023-05-07T12:14:41;11.85;;;6.78;;
70148;SDS011;57514;52.164;5.282;2023-05-07T12:17:10;13.07;;;8.43;;
70148;SDS011;57514;52.164;5.282;2023-05-07T12:19:39;13.25;;;8.05;;
70148;SDS011;57514;52.164;5.282;2023-05-07T12:22:07;13.10;;;8.00;;
70148;SDS011;57514;52.164;5.282;2023-05-07T12:24:56;13.50;;;7.55;;
70148;SDS011;57514;52.164;5.282;2023-05-07T12:27:25;13.30;;;8.52;;
70148;SDS011;57514;52.164;5.282;2023-05-07T12:29:52;12.68;;;8.50;;
70148;SDS011;57514;52.164;5.282;2023-05-07T12:32:20;14.27;;;10.48;;
70148;SDS011;57514;52.164;5.282;2023-05-07T12:34:51;13.07;;;9.02;;
70148;SDS011;57514;52.164;5.282;2023-05-07T12:37:24;13.80;;;9.25;;
70148;SDS011;57514;52.164;5.282;2023-05-07T12:40:06;14.20;;;9.70;;
70148;SDS011;57514;52.164;5.282;2023-05-07T12:42:39;14.35;;;9.43;;
70148;SDS011;57514;52.164;5.282;2023-05-07T12:45:07;14.02;;;9.52;;
70148;SDS011;57514;52.164;5.282;2023-05-07T12:47:38;13.68;;;9.32;;
70148;SDS011;57514;52.164;5.282;2023-05-07T12:50:06;14.70;;;10.60;;
70148;SDS011;57514;52.164;5.282;2023-05-07T12:52:33;14.13;;;10.45;;
70148;SDS011;57514;52.164;5.282;2023-05-07T12:55:05;15.93;;;10.45;;
70148;SDS011;57514;52.164;5.282;2023-05-07T12:57:39;15.73;;;9.65;;
70148;SDS011;57514;52.164;5.282;2023-05-07T13:00:14;17.52;;;11.40;;
70148;SDS011;57514;52.164;5.282;2023-05-07T13:02:41;15.75;;;9.95;;
70148;SDS011;57514;52.164;5.282;2023-05-07T13:07:37;18.02;;;11.38;;
70148;SDS011;57514;52.164;5.282;2023-05-07T13:10:05;15.13;;;9.45;;
70148;SDS011;57514;52.164;5.282;2023-05-07T13:12:32;14.23;;;10.00;;
70148;SDS011;57514;52.164;5.282;2023-05-07T13:15:00;13.65;;;9.05;;
70148;SDS011;57514;52.164;5.282;2023-05-07T13:17:26;15.65;;;10.32;;
70148;SDS011;57514;52.164;5.282;2023-05-07T13:19:54;18.02;;;12.05;;
70148;SDS011;57514;52.164;5.282;2023-05-07T13:22:21;17.48;;;11.63;;
70148;SDS011;57514;52.164;5.282;2023-05-07T13:24:48;16.27;;;10.27;;
70148;SDS011;57514;52.164;5.282;2023-05-07T13:27:16;14.23;;;9.68;;
70148;SDS011;57514;52.164;5.282;2023-05-07T13:29:46;17.20;;;10.90;;
70148;SDS011;57514;52.164;5.282;2023-05-07T13:32:14;15.63;;;10.25;;
70148;SDS011;57514;52.164;5.282;2023-05-07T13:34:41;16.42;;;10.32;;
70148;SDS011;57514;52.164;5.282;2023-05-07T13:37:10;16.67;;;11.02;;
70148;SDS011;57514;52.164;5.282;2023-05-07T13:39:40;16.20;;;11.35;;
70148;SDS011;57514;52.164;5.282;2023-05-07T13:42:07;17.58;;;10.93;;
70148;SDS011;57514;52.164;5.282;2023-05-07T13:44:34;18.63;;;13.60;;
70148;SDS011;57514;52.164;5.282;2023-05-07T13:47:02;19.75;;;12.55;;
70148;SDS011;57514;52.164;5.282;2023-05-07T13:49:29;19.15;;;13.13;;
70148;SDS011;57514;52.164;5.282;2023-05-07T13:51:56;21.50;;;14.02;;
70148;SDS011;57514;52.164;5.282;2023-05-07T13:54:23;29.80;;;16.08;;
70148;SDS011;57514;52.164;5.282;2023-05-07T13:56:50;25.60;;;15.13;;
70148;SDS011;57514;52.164;5.282;2023-05-07T13:59:17;20.05;;;13.45;;
70148;SDS011;57514;52.164;5.282;2023-05-07T14:01:44;23.80;;;14.80;;
70148;SDS011;57514;52.164;5.282;2023-05-07T14:04:12;22.70;;;14.73;;
70148;SDS011;57514;52.164;5.282;2023-05-07T14:06:39;22.88;;;13.02;;
70148;SDS011;57514;52.164;5.282;2023-05-07T14:09:06;25.33;;;15.85;;
70148;SDS011;57514;52.164;5.282;2023-05-07T14:11:33;26.55;;;17.55;;
70148;SDS011;57514;52.164;5.282;2023-05-07T14:14:01;19.48;;;12.70;;
70148;SDS011;57514;52.164;5.282;2023-05-07T14:16:31;22.30;;;14.32;;
70148;SDS011;57514;52.164;5.282;2023-05-07T14:18:59;20.08;;;13.52;;
70148;SDS011;57514;52.164;5.282;2023-05-07T14:21:26;19.55;;;13.02;;
70148;SDS011;57514;52.164;5.282;2023-05-07T14:23:53;21.05;;;12.93;;
70148;SDS011;57514;52.164;5.282;2023-05-07T14:26:20;19.30;;;12.15;;
70148;SDS011;57514;52.164;5.282;2023-05-07T14:28:49;17.83;;;11.52;;
70148;SDS011;57514;52.164;5.282;2023-05-07T14:31:16;18.02;;;11.75;;
70148;SDS011;57514;52.164;5.282;2023-05-07T14:33:44;20.05;;;11.82;;
70148;SDS011;57514;52.164;5.282;2023-05-07T14:36:11;20.23;;;12.20;;
70148;SDS011;57514;52.164;5.282;2023-05-07T14:38:38;18.80;;;12.02;;
70148;SDS011;57514;52.164;5.282;2023-05-07T14:41:05;20.30;;;12.63;;
70148;SDS011;57514;52.164;5.282;2023-05-07T14:43:33;21.35;;;13.45;;
70148;SDS011;57514;52.164;5.282;2023-05-07T14:46:00;21.33;;;12.82;;
70148;SDS011;57514;52.164;5.282;2023-05-07T14:48:27;22.85;;;13.82;;
70148;SDS011;57514;52.164;5.282;2023-05-07T14:50:54;22.23;;;13.57;;
70148;SDS011;57514;52.164;5.282;2023-05-07T14:53:22;19.75;;;13.05;;
70148;SDS011;57514;52.164;5.282;2023-05-07T14:55:49;20.83;;;12.18;;
70148;SDS011;57514;52.164;5.282;2023-05-07T14:58:16;20.85;;;11.90;;
70148;SDS011;57514;52.164;5.282;2023-05-07T15:00:43;18.50;;;10.35;;
70148;SDS011;57514;52.164;5.282;2023-05-07T15:03:31;18.15;;;10.48;;
70148;SDS011;57514;52.164;5.282;2023-05-07T15:06:01;20.45;;;10.75;;
70148;SDS011;57514;52.164;5.282;2023-05-07T15:08:30;25.85;;;12.52;;
70148;SDS011;57514;52.164;5.282;2023-05-07T15:10:57;24.27;;;12.48;;
70148;SDS011;57514;52.164;5.282;2023-05-07T15:13:27;26.20;;;11.75;;